Time;durP1;ratioP1;P1;durP2;ratioP2;P2;SDS_P1;SDS_P2;PMS_P1;PMS_P2;Temp;Humidity;BMP_temperature;BMP_pressure;BME280_temperature;BME280_humidity;BME280_pressure;Samples;Min_cycle;Max_cycle;Signal;HPM_P1;HPM_P2
2022/01/02 00:01:37;;;;;;;;;272.67;272.67;;;;;;;;5072352;27;11601;-77
2022/01/02 00:04:03;;;;;;;;;293.50;293.50;;;;;;;;5105211;27;8792;-76
2022/01/02 00:06:33;;;;;;;;;314.00;314.00;;;;;;;;5037801;28;8810;-77
2022/01/02 00:09:02;;;;;;;;;270.33;270.33;;;;;;;;5051244;27;8792;-76
2022/01/02 00:11:27;;;;;;;;;267.00;267.00;;;;;;;;5051331;27;8783;-77
2022/01/02 00:13:56;;;;;;;;;256.20;256.20;;;;;;;;5049647;27;8915;-77
2022/01/02 00:16:23;;;;;;;;;233.60;233.60;;;;;;;;5042035;28;8800;-76
2022/01/02 00:19:03;;;;;;;;;254.17;254.17;;;;;;;;5051045;27;9701;-76
2022/01/02 00:21:31;;;;;;;;;193.40;193.40;;;;;;;;5051446;28;8737;-77
2022/01/02 00:24:10;;;;;;;;;248.80;248.80;;;;;;;;5050895;27;12432;-76
2022/01/02 00:26:39;;;;;;;;;240.17;240.17;;;;;;;;5051153;28;8808;-77
2022/01/02 00:29:05;;;;;;;;;230.17;230.17;;;;;;;;5051042;27;8812;-77
2022/01/02 00:31:36;;;;;;;;;240.33;240.33;;;;;;;;5049778;28;8822;-76
2022/01/02 00:34:03;;;;;;;;;229.83;229.83;;;;;;;;5051092;28;9709;-77
2022/01/02 00:36:28;;;;;;;;;226.60;226.60;;;;;;;;5051246;27;8772;-77
2022/01/02 00:38:54;;;;;;;;;225.50;225.50;;;;;;;;5051071;28;8910;-77
2022/01/02 00:41:42;;;;;;;;;232.50;232.50;;;;;;;;5036597;27;8958;-77
2022/01/02 00:44:13;;;;;;;;;226.43;226.43;;;;;;;;5096515;27;8842;-76
2022/01/02 00:46:46;;;;;;;;;240.83;240.83;;;;;;;;5051158;28;8832;-76
2022/01/02 00:49:12;;;;;;;;;216.83;216.83;;;;;;;;5051030;28;8775;-76
2022/01/02 00:51:49;;;;;;;;;214.67;214.67;;;;;;;;5097371;27;8786;-76
2022/01/02 00:54:18;;;;;;;;;206.83;206.83;;;;;;;;5049694;28;8792;-76
2022/01/02 00:56:50;;;;;;;;;209.50;209.50;;;;;;;;5060163;27;8820;-77
2022/01/02 00:59:39;;;;;;;;;220.40;220.00;;;;;;;;5050727;28;8826;-77
2022/01/02 01:02:09;;;;;;;;;219.33;219.33;;;;;;;;5050318;27;11578;-77
2022/01/02 01:04:37;;;;;;;;;214.83;214.50;;;;;;;;5061762;28;8995;-76
2022/01/02 01:07:08;;;;;;;;;236.00;236.00;;;;;;;;5050813;28;8812;-76
2022/01/02 01:09:33;;;;;;;;;220.00;219.75;;;;;;;;5049531;28;9402;-76
2022/01/02 01:11:59;;;;;;;;;215.00;213.67;;;;;;;;5049328;27;11308;-76
2022/01/02 01:14:26;;;;;;;;;209.40;209.40;;;;;;;;5050498;27;8787;-77
2022/01/02 01:16:54;;;;;;;;;217.00;217.00;;;;;;;;5043151;28;8857;-77
2022/01/02 01:19:20;;;;;;;;;217.60;217.60;;;;;;;;5047206;27;8776;-77
2022/01/02 01:21:48;;;;;;;;;222.50;222.50;;;;;;;;5050284;27;8811;-77
2022/01/02 01:24:13;;;;;;;;;208.75;208.75;;;;;;;;5049133;28;8824;-76
2022/01/02 01:26:40;;;;;;;;;192.75;192.25;;;;;;;;5049137;27;8863;-77
2022/01/02 01:29:05;;;;;;;;;202.75;202.75;;;;;;;;5050176;27;9261;-76
2022/01/02 01:31:30;;;;;;;;;201.20;201.20;;;;;;;;5050503;27;8796;-77
2022/01/02 01:33:56;;;;;;;;;202.60;202.60;;;;;;;;5048758;27;8927;-77
2022/01/02 01:36:30;;;;;;;;;190.75;190.50;;;;;;;;5061380;28;8809;-77
2022/01/02 01:38:58;;;;;;;;;194.40;193.80;;;;;;;;5051447;28;11516;-77
2022/01/02 01:41:28;;;;;;;;;229.80;227.00;;;;;;;;5050356;28;9034;-77
2022/01/02 01:44:20;;;;;;;;;192.40;191.80;;;;;;;;5058686;27;8868;-76
2022/01/02 01:46:47;;;;;;;;;194.67;192.17;;;;;;;;5049949;28;8892;-76
2022/01/02 01:49:42;;;;;;;;;186.60;186.60;;;;;;;;5050379;27;8752;-76
2022/01/02 01:52:07;;;;;;;;;214.67;212.83;;;;;;;;5073389;27;8812;-76
2022/01/02 01:54:32;;;;;;;;;245.75;244.75;;;;;;;;5061578;27;8880;-77
2022/01/02 01:56:58;;;;;;;;;200.50;198.75;;;;;;;;5049981;27;9053;-76
2022/01/02 01:59:23;;;;;;;;;194.00;191.00;;;;;;;;5050417;27;11570;-76
2022/01/02 02:01:49;;;;;;;;;179.60;179.00;;;;;;;;5062498;28;8833;-77
2022/01/02 02:04:15;;;;;;;;;178.80;176.60;;;;;;;;5051151;27;8840;-77
2022/01/02 02:06:40;;;;;;;;;203.17;202.83;;;;;;;;5053804;27;8824;-77
2022/01/02 02:09:09;;;;;;;;;181.20;181.00;;;;;;;;5048640;27;8816;-76
2022/01/02 02:11:38;;;;;;;;;168.40;168.40;;;;;;;;5049766;27;8780;-76
2022/01/02 02:14:09;;;;;;;;;197.80;195.80;;;;;;;;5049676;28;9658;-77
2022/01/02 02:16:35;;;;;;;;;169.60;168.40;;;;;;;;5049564;28;8801;-77
2022/01/02 02:19:05;;;;;;;;;176.00;176.00;;;;;;;;5048584;28;8800;-76
2022/01/02 02:21:34;;;;;;;;;175.67;174.83;;;;;;;;5049426;27;8764;-77
2022/01/02 02:24:02;;;;;;;;;194.80;194.00;;;;;;;;5060149;27;8885;-76
2022/01/02 02:26:28;;;;;;;;;187.50;187.50;;;;;;;;5052072;27;8811;-76
2022/01/02 02:28:56;;;;;;;;;211.75;211.75;;;;;;;;5052549;28;8811;-76
2022/01/02 02:31:24;;;;;;;;;209.17;205.00;;;;;;;;5052774;27;8956;-76
2022/01/02 02:33:49;;;;;;;;;196.60;194.60;;;;;;;;5052752;28;8765;-77
2022/01/02 02:36:15;;;;;;;;;193.50;190.75;;;;;;;;5052515;27;8944;-77
2022/01/02 02:38:40;;;;;;;;;199.50;196.50;;;;;;;;5052321;27;8808;-77
2022/01/02 02:41:06;;;;;;;;;202.00;201.80;;;;;;;;5052409;27;8963;-77
2022/01/02 02:43:45;;;;;;;;;207.00;204.80;;;;;;;;5076885;27;8821;-77
2022/01/02 02:49:00;;;;;;;;;169.17;168.17;;;;;;;;5055721;28;8776;-76
2022/01/02 02:51:34;;;;;;;;;160.60;159.00;;;;;;;;5091045;27;8770;-76
2022/01/02 02:54:00;;;;;;;;;185.40;183.00;;;;;;;;5047095;27;8788;-76
2022/01/02 02:56:29;;;;;;;;;192.60;190.40;;;;;;;;5052303;27;8861;-77
2022/01/02 02:58:57;;;;;;;;;199.00;193.75;;;;;;;;5065104;27;8954;-77
2022/01/02 03:01:26;;;;;;;;;200.75;200.50;;;;;;;;5052223;27;8748;-76
2022/01/02 03:03:51;;;;;;;;;182.17;180.33;;;;;;;;5065426;28;8830;-76
2022/01/02 03:06:17;;;;;;;;;165.00;165.00;;;;;;;;5052276;27;8851;-76
2022/01/02 03:08:43;;;;;;;;;192.40;189.60;;;;;;;;5051548;27;8816;-76
2022/01/02 03:11:15;;;;;;;;;182.40;181.60;;;;;;;;5063765;27;10281;-76
2022/01/02 03:13:47;;;;;;;;;195.17;194.67;;;;;;;;5052579;28;8827;-76
2022/01/02 03:16:12;;;;;;;;;185.67;184.00;;;;;;;;5052107;28;8946;-76
2022/01/02 03:18:38;;;;;;;;;177.25;176.00;;;;;;;;5051923;28;8846;-76
2022/01/02 03:21:06;;;;;;;;;184.40;182.60;;;;;;;;5051793;27;8789;-76
2022/01/02 03:23:35;;;;;;;;;191.40;191.40;;;;;;;;5052249;28;8934;-76
2022/01/02 03:26:02;;;;;;;;;201.20;200.00;;;;;;;;5051609;28;8815;-76
2022/01/02 03:28:28;;;;;;;;;209.80;209.80;;;;;;;;5059079;27;8796;-76
2022/01/02 03:30:53;;;;;;;;;180.60;180.60;;;;;;;;5057848;27;8832;-76
2022/01/02 03:33:18;;;;;;;;;193.80;193.40;;;;;;;;5052037;27;8820;-76
2022/01/02 03:35:47;;;;;;;;;196.20;194.00;;;;;;;;5051309;28;8827;-76
2022/01/02 03:38:15;;;;;;;;;195.50;194.67;;;;;;;;5051421;27;9734;-76
2022/01/02 03:40:43;;;;;;;;;164.80;162.40;;;;;;;;5064786;27;8884;-76
2022/01/02 03:43:08;;;;;;;;;194.40;192.80;;;;;;;;5061106;27;8795;-76
2022/01/02 03:45:33;;;;;;;;;183.40;183.40;;;;;;;;5078086;27;8839;-76
2022/01/02 03:47:59;;;;;;;;;189.25;186.50;;;;;;;;5051361;27;8796;-76
2022/01/02 03:50:24;;;;;;;;;194.60;193.00;;;;;;;;5051634;28;8820;-76
2022/01/02 03:52:50;;;;;;;;;174.50;173.25;;;;;;;;5098286;27;8933;-76
2022/01/02 03:55:15;;;;;;;;;176.67;176.00;;;;;;;;5058871;28;8809;-76
2022/01/02 03:57:43;;;;;;;;;182.60;182.60;;;;;;;;5051375;27;8884;-76
2022/01/02 04:00:12;;;;;;;;;173.17;173.00;;;;;;;;5051154;28;8764;-76
2022/01/02 04:02:38;;;;;;;;;166.83;166.50;;;;;;;;5051468;27;8804;-76
2022/01/02 04:05:21;;;;;;;;;160.40;159.40;;;;;;;;5051015;28;8779;-76
2022/01/02 04:07:49;;;;;;;;;169.83;169.50;;;;;;;;5037490;27;8812;-77
2022/01/02 04:10:18;;;;;;;;;170.67;169.83;;;;;;;;5051478;27;8780;-76
2022/01/02 04:12:46;;;;;;;;;159.20;157.00;;;;;;;;5051312;28;8857;-76
2022/01/02 04:15:13;;;;;;;;;153.40;153.40;;;;;;;;5064259;27;11714;-76
2022/01/02 04:17:39;;;;;;;;;163.25;162.75;;;;;;;;5049426;27;8748;-76
2022/01/02 04:20:11;;;;;;;;;159.40;156.60;;;;;;;;5049474;27;8962;-76
2022/01/02 04:22:39;;;;;;;;;154.00;152.80;;;;;;;;5049959;27;8800;-76
2022/01/02 04:25:10;;;;;;;;;163.20;163.20;;;;;;;;5051068;27;8765;-76
2022/01/02 04:27:35;;;;;;;;;157.40;156.80;;;;;;;;5051388;28;10954;-76
2022/01/02 04:30:02;;;;;;;;;166.20;163.00;;;;;;;;5050684;27;8807;-76
2022/01/02 04:32:27;;;;;;;;;152.80;152.80;;;;;;;;5051420;28;8769;-76
2022/01/02 04:34:55;;;;;;;;;151.67;151.67;;;;;;;;5055644;28;8790;-76
2022/01/02 04:37:20;;;;;;;;;150.40;149.00;;;;;;;;5059544;28;8811;-76
2022/01/02 04:39:46;;;;;;;;;146.50;144.25;;;;;;;;5064349;27;8948;-76
2022/01/02 04:42:11;;;;;;;;;153.25;149.00;;;;;;;;5049797;28;8854;-76
2022/01/02 04:44:37;;;;;;;;;155.50;154.50;;;;;;;;5096052;27;8816;-76
2022/01/02 04:47:02;;;;;;;;;153.25;151.50;;;;;;;;5049339;28;8823;-76
2022/01/02 04:49:28;;;;;;;;;152.00;152.00;;;;;;;;5056343;27;9536;-76
2022/01/02 04:51:56;;;;;;;;;144.80;143.00;;;;;;;;5115137;27;8805;-76
2022/01/02 04:54:24;;;;;;;;;147.50;147.50;;;;;;;;5044675;27;8808;-76
2022/01/02 04:56:52;;;;;;;;;148.80;148.40;;;;;;;;5057426;27;8808;-76
2022/01/02 04:59:18;;;;;;;;;152.83;149.00;;;;;;;;5037647;27;8753;-76
2022/01/02 05:01:44;;;;;;;;;143.60;143.20;;;;;;;;5050493;27;8798;-76
2022/01/02 05:04:11;;;;;;;;;160.50;156.50;;;;;;;;5049353;28;8816;-76
2022/01/02 05:06:37;;;;;;;;;160.80;158.00;;;;;;;;5050567;28;9726;-76
2022/01/02 05:09:04;;;;;;;;;164.25;162.25;;;;;;;;5050538;27;8816;-76
2022/01/02 05:11:30;;;;;;;;;155.20;153.40;;;;;;;;5050483;27;10855;-76
2022/01/02 05:13:55;;;;;;;;;152.33;150.33;;;;;;;;5057845;28;8790;-76
2022/01/02 05:16:21;;;;;;;;;150.00;146.67;;;;;;;;5054690;27;10620;-76
2022/01/02 05:18:46;;;;;;;;;153.67;151.00;;;;;;;;5050441;27;8812;-76
2022/01/02 05:21:13;;;;;;;;;152.67;148.33;;;;;;;;5048822;27;8878;-76
2022/01/02 05:23:42;;;;;;;;;154.00;150.60;;;;;;;;5050685;28;8733;-76
2022/01/02 05:26:07;;;;;;;;;143.25;142.00;;;;;;;;5050334;27;8777;-76
2022/01/02 05:28:33;;;;;;;;;151.60;150.40;;;;;;;;5050391;27;8828;-76
2022/01/02 05:30:58;;;;;;;;;164.75;162.00;;;;;;;;5050356;28;8887;-76
2022/01/02 05:33:23;;;;;;;;;137.00;136.33;;;;;;;;5050486;27;9555;-76
2022/01/02 05:35:49;;;;;;;;;158.00;156.50;;;;;;;;5050256;28;8914;-76
2022/01/02 05:38:15;;;;;;;;;151.67;151.67;;;;;;;;5049028;27;12218;-76
2022/01/02 05:40:41;;;;;;;;;133.80;132.60;;;;;;;;5048843;28;8792;-76
2022/01/02 05:43:09;;;;;;;;;122.25;121.75;;;;;;;;5058210;27;8923;-77
2022/01/02 05:45:36;;;;;;;;;127.60;127.40;;;;;;;;5075935;27;8815;-76
2022/01/02 05:48:05;;;;;;;;;136.80;135.20;;;;;;;;5050334;27;8799;-76
2022/01/02 05:50:30;;;;;;;;;144.75;144.00;;;;;;;;5050066;28;8835;-76
2022/01/02 05:52:56;;;;;;;;;163.25;162.00;;;;;;;;5096140;27;10465;-76
2022/01/02 05:55:24;;;;;;;;;141.75;141.25;;;;;;;;5044832;28;9359;-77
2022/01/02 05:57:49;;;;;;;;;139.40;138.60;;;;;;;;5049838;27;8725;-76
2022/01/02 06:00:17;;;;;;;;;142.25;142.00;;;;;;;;5050112;28;8911;-76
2022/01/02 06:02:43;;;;;;;;;138.00;138.00;;;;;;;;5049282;27;8934;-76
2022/01/02 06:05:08;;;;;;;;;143.25;142.25;;;;;;;;5050113;28;8895;-76
2022/01/02 06:07:36;;;;;;;;;138.00;137.75;;;;;;;;5036575;27;8835;-76
2022/01/02 06:10:04;;;;;;;;;122.83;121.67;;;;;;;;5048590;28;9693;-76
2022/01/02 06:12:33;;;;;;;;;127.33;127.00;;;;;;;;5049629;27;8904;-76
2022/01/02 06:14:58;;;;;;;;;124.25;123.25;;;;;;;;5049616;27;9483;-76
2022/01/02 06:17:23;;;;;;;;;122.75;122.75;;;;;;;;5045871;28;8869;-76
2022/01/02 06:19:49;;;;;;;;;87.80;81.00;;;;;;;;5048356;27;8930;-76
2022/01/02 06:22:14;;;;;;;;;110.75;109.75;;;;;;;;5049910;28;8824;-76
2022/01/02 06:24:39;;;;;;;;;34.33;34.00;;;;;;;;5049781;28;8902;-76
2022/01/02 06:27:05;;;;;;;;;24.25;23.00;;;;;;;;5049673;28;8934;-76
2022/01/02 06:29:33;;;;;;;;;28.25;25.50;;;;;;;;5049512;27;8874;-76
2022/01/02 06:32:02;;;;;;;;;57.00;48.60;;;;;;;;5049590;27;8823;-76
2022/01/02 06:34:28;;;;;;;;;35.40;34.60;;;;;;;;5063147;28;8793;-76
2022/01/02 06:36:53;;;;;;;;;43.50;40.00;;;;;;;;5034827;27;8832;-76
2022/01/02 06:39:20;;;;;;;;;55.25;46.50;;;;;;;;5049863;28;8832;-76
2022/01/02 06:41:51;;;;;;;;;57.80;49.20;;;;;;;;5036209;28;8788;-76
2022/01/02 06:44:16;;;;;;;;;24.60;22.80;;;;;;;;5103366;27;8881;-76
2022/01/02 06:46:42;;;;;;;;;60.00;50.75;;;;;;;;5049227;27;8859;-76
2022/01/02 06:49:07;;;;;;;;;42.67;39.00;;;;;;;;5063227;28;8805;-76
2022/01/02 06:51:32;;;;;;;;;54.00;43.80;;;;;;;;5053028;27;8856;-76
2022/01/02 06:53:57;;;;;;;;;67.60;55.80;;;;;;;;5049254;28;8800;-76
2022/01/02 06:56:23;;;;;;;;;63.75;52.25;;;;;;;;5049322;27;8823;-76
2022/01/02 06:58:48;;;;;;;;;92.67;90.33;;;;;;;;5047289;28;8914;-76
2022/01/02 07:01:16;;;;;;;;;73.50;60.50;;;;;;;;5048016;28;8823;-76
2022/01/02 07:03:41;;;;;;;;;57.00;48.60;;;;;;;;5052608;27;8844;-76
2022/01/02 07:06:10;;;;;;;;;56.00;48.00;;;;;;;;5057766;27;8824;-76
2022/01/02 07:08:35;;;;;;;;;72.25;59.75;;;;;;;;5048816;27;8818;-76
2022/01/02 07:11:00;;;;;;;;;70.80;58.20;;;;;;;;5047692;27;8831;-76
2022/01/02 07:13:26;;;;;;;;;56.75;48.25;;;;;;;;5047678;28;8820;-76
2022/01/02 07:15:53;;;;;;;;;49.20;42.60;;;;;;;;5051989;27;8815;-76
2022/01/02 07:18:19;;;;;;;;;69.50;56.50;;;;;;;;5053136;27;8818;-76
2022/01/02 07:20:47;;;;;;;;;37.50;34.75;;;;;;;;5050406;28;8942;-76
2022/01/02 07:23:14;;;;;;;;;73.40;60.00;;;;;;;;5052151;28;8830;-76
2022/01/02 07:25:40;;;;;;;;;54.50;46.33;;;;;;;;5063678;27;8809;-76
2022/01/02 07:28:05;;;;;;;;;76.50;63.50;;;;;;;;5051997;27;8834;-77
2022/01/02 07:30:33;;;;;;;;;66.00;54.67;;;;;;;;5052162;27;8780;-76
2022/01/02 07:33:03;;;;;;;;;78.40;64.60;;;;;;;;5051740;28;8887;-76
2022/01/02 07:35:29;;;;;;;;;63.67;53.33;;;;;;;;5052064;27;8783;-76
2022/01/02 07:37:54;;;;;;;;;61.60;51.20;;;;;;;;5051790;27;10455;-76
2022/01/02 07:40:19;;;;;;;;;34.50;34.25;;;;;;;;5050769;28;8816;-76
2022/01/02 07:42:45;;;;;;;;;29.00;29.00;;;;;;;;5051507;27;8866;-77
2022/01/02 07:45:12;;;;;;;;;65.25;54.25;;;;;;;;5083280;27;8784;-76
2022/01/02 07:47:38;;;;;;;;;43.83;39.00;;;;;;;;5051766;27;8756;-76
2022/01/02 07:50:04;;;;;;;;;79.60;65.80;;;;;;;;5051385;28;8788;-76
2022/01/02 07:52:29;;;;;;;;;133.60;133.60;;;;;;;;5099840;27;8813;-76
2022/01/02 07:54:54;;;;;;;;;135.67;133.33;;;;;;;;5042232;28;8792;-76
2022/01/02 07:57:22;;;;;;;;;150.50;148.75;;;;;;;;5051413;27;8934;-76
2022/01/02 07:59:48;;;;;;;;;132.60;131.80;;;;;;;;5049725;27;8760;-76
2022/01/02 08:02:13;;;;;;;;;131.20;130.20;;;;;;;;5054374;27;8953;-76
2022/01/02 08:04:38;;;;;;;;;124.00;121.75;;;;;;;;5060497;27;8812;-76
2022/01/02 08:07:04;;;;;;;;;85.00;76.00;;;;;;;;5050052;27;8836;-76
2022/01/02 08:09:29;;;;;;;;;96.00;95.75;;;;;;;;5051346;27;8835;-76
2022/01/02 08:11:57;;;;;;;;;92.75;90.00;;;;;;;;5051252;28;8800;-76
2022/01/02 08:14:22;;;;;;;;;78.20;65.40;;;;;;;;5064270;28;8784;-76
2022/01/02 08:16:48;;;;;;;;;87.75;81.50;;;;;;;;5046486;28;8830;-76
2022/01/02 08:19:14;;;;;;;;;88.00;82.20;;;;;;;;5050484;27;8924;-76
2022/01/02 08:21:39;;;;;;;;;82.60;72.00;;;;;;;;5051072;27;8839;-76
2022/01/02 08:24:05;;;;;;;;;80.40;69.60;;;;;;;;5049334;27;8846;-76
2022/01/02 08:26:30;;;;;;;;;85.80;77.00;;;;;;;;5050927;28;8792;-76
2022/01/02 08:29:00;;;;;;;;;95.80;92.60;;;;;;;;5050591;27;9562;-76
2022/01/02 08:31:25;;;;;;;;;91.00;87.40;;;;;;;;5051266;28;8800;-76
2022/01/02 08:33:50;;;;;;;;;94.25;93.25;;;;;;;;5050811;27;8883;-76
2022/01/02 08:36:16;;;;;;;;;112.50;112.50;;;;;;;;5051083;28;9559;-76
2022/01/02 08:38:41;;;;;;;;;116.00;114.40;;;;;;;;5044084;27;8805;-76
2022/01/02 08:41:07;;;;;;;;;123.75;122.00;;;;;;;;5057902;28;8796;-77
2022/01/02 08:43:34;;;;;;;;;64.00;53.00;;;;;;;;5077717;27;8798;-76
2022/01/02 08:46:02;;;;;;;;;124.60;121.40;;;;;;;;5083984;27;8807;-76
2022/01/02 08:48:30;;;;;;;;;128.20;126.80;;;;;;;;5051225;28;8784;-76
2022/01/02 08:50:59;;;;;;;;;132.60;131.80;;;;;;;;5059863;27;8834;-76
2022/01/02 08:53:27;;;;;;;;;134.80;134.80;;;;;;;;5039014;27;8763;-76
2022/01/02 08:55:55;;;;;;;;;133.20;130.40;;;;;;;;5049497;28;8810;-76
2022/01/02 08:58:23;;;;;;;;;134.20;130.80;;;;;;;;5056490;27;8800;-78
2022/01/02 09:00:51;;;;;;;;;134.00;132.80;;;;;;;;5048675;27;8804;-77
2022/01/02 09:03:19;;;;;;;;;132.80;131.60;;;;;;;;5036045;28;8811;-78
2022/01/02 09:05:44;;;;;;;;;137.40;135.60;;;;;;;;5048985;28;8842;-78
2022/01/02 09:08:10;;;;;;;;;135.75;134.50;;;;;;;;5063430;27;8796;-78
2022/01/02 09:10:35;;;;;;;;;132.00;130.75;;;;;;;;5050800;27;8836;-78
2022/01/02 09:13:03;;;;;;;;;134.50;132.00;;;;;;;;5050653;28;8850;-78
2022/01/02 09:15:31;;;;;;;;;132.60;132.60;;;;;;;;5050160;28;8906;-78
2022/01/02 09:17:57;;;;;;;;;142.00;139.75;;;;;;;;5044240;27;8800;-78
2022/01/02 09:20:22;;;;;;;;;129.50;129.25;;;;;;;;5052834;27;11101;-78
2022/01/02 09:22:48;;;;;;;;;142.60;141.80;;;;;;;;5050437;28;9628;-78
2022/01/02 09:25:14;;;;;;;;;136.25;135.75;;;;;;;;5051672;28;9547;-78
2022/01/02 09:27:41;;;;;;;;;150.80;150.40;;;;;;;;5050731;28;8768;-78
2022/01/02 09:30:11;;;;;;;;;139.40;138.20;;;;;;;;5050409;27;12918;-78
2022/01/02 09:32:37;;;;;;;;;129.00;128.00;;;;;;;;5050308;28;8792;-78
2022/01/02 09:35:07;;;;;;;;;134.67;133.67;;;;;;;;5050356;28;8888;-78
2022/01/02 09:37:34;;;;;;;;;128.40;126.60;;;;;;;;5059274;27;11572;-79
2022/01/02 09:40:03;;;;;;;;;139.80;139.20;;;;;;;;5049711;27;8884;-80
2022/01/02 09:42:29;;;;;;;;;134.20;134.20;;;;;;;;5050290;27;8792;-79
2022/01/02 09:44:56;;;;;;;;;134.00;131.00;;;;;;;;5104764;27;8847;-81
2022/01/02 09:47:22;;;;;;;;;136.40;132.60;;;;;;;;5051170;27;8820;-80
2022/01/02 09:49:48;;;;;;;;;134.75;132.00;;;;;;;;5056314;28;8790;-82
2022/01/02 09:52:17;;;;;;;;;138.60;138.60;;;;;;;;5055445;27;8784;-79
2022/01/02 09:54:42;;;;;;;;;135.60;135.60;;;;;;;;5035616;28;8815;-78
2022/01/02 09:57:11;;;;;;;;;129.25;128.00;;;;;;;;5048651;27;9050;-78
2022/01/02 09:59:37;;;;;;;;;135.20;133.20;;;;;;;;5048445;28;8890;-79
2022/01/02 10:02:03;;;;;;;;;143.00;140.25;;;;;;;;5052598;27;8788;-78
2022/01/02 10:04:39;;;;;;;;;140.60;140.60;;;;;;;;5049916;28;11546;-78
2022/01/02 10:07:06;;;;;;;;;138.00;137.50;;;;;;;;5039933;28;8806;-78
2022/01/02 10:09:31;;;;;;;;;150.80;148.60;;;;;;;;5049133;28;9335;-78
2022/01/02 10:12:16;;;;;;;;;130.00;128.20;;;;;;;;5049925;28;8899;-78
2022/01/02 10:14:44;;;;;;;;;141.80;139.00;;;;;;;;5049256;27;8756;-78
2022/01/02 10:17:09;;;;;;;;;143.40;142.00;;;;;;;;5042599;28;8897;-79
2022/01/02 10:19:40;;;;;;;;;137.75;135.50;;;;;;;;5049657;27;8804;-79
2022/01/02 10:22:06;;;;;;;;;130.60;128.00;;;;;;;;5050888;27;8811;-80
2022/01/02 10:24:46;;;;;;;;;138.40;136.40;;;;;;;;5049499;27;11600;-80
2022/01/02 10:27:13;;;;;;;;;128.80;127.80;;;;;;;;5072780;27;8812;-79
2022/01/02 10:29:43;;;;;;;;;130.00;127.20;;;;;;;;5061714;28;8845;-79
2022/01/02 10:32:29;;;;;;;;;139.40;136.00;;;;;;;;5043738;28;8766;-78
2022/01/02 10:35:06;;;;;;;;;133.20;133.20;;;;;;;;5059751;28;8797;-78
2022/01/02 10:37:32;;;;;;;;;130.40;129.20;;;;;;;;5054786;28;8805;-79
2022/01/02 10:39:57;;;;;;;;;133.20;132.80;;;;;;;;5068077;28;8827;-76
2022/01/02 10:42:23;;;;;;;;;123.00;123.00;;;;;;;;5050697;27;8906;-78
2022/01/02 10:44:51;;;;;;;;;125.40;124.80;;;;;;;;5078424;27;8846;-77
2022/01/02 10:47:21;;;;;;;;;126.00;126.00;;;;;;;;5054266;27;11749;-77
2022/01/02 10:49:49;;;;;;;;;117.00;116.00;;;;;;;;5052462;28;10332;-77
2022/01/02 10:52:20;;;;;;;;;122.00;119.50;;;;;;;;5094457;27;8864;-77
2022/01/02 10:54:45;;;;;;;;;120.00;119.75;;;;;;;;5050777;28;8814;-77
2022/01/02 10:57:12;;;;;;;;;119.25;119.25;;;;;;;;5059975;27;8817;-77
2022/01/02 10:59:38;;;;;;;;;126.00;126.00;;;;;;;;5055532;28;8930;-77
2022/01/02 11:02:05;;;;;;;;;127.00;126.00;;;;;;;;5051857;27;8777;-78
2022/01/02 11:04:31;;;;;;;;;120.60;120.60;;;;;;;;5052451;28;8788;-78
2022/01/02 11:07:00;;;;;;;;;134.20;134.20;;;;;;;;5045195;27;8822;-78
2022/01/02 11:09:28;;;;;;;;;131.00;131.00;;;;;;;;5053960;27;8776;-77
2022/01/02 11:11:54;;;;;;;;;125.00;122.40;;;;;;;;5050531;27;8814;-77
2022/01/02 11:14:21;;;;;;;;;106.75;106.50;;;;;;;;5062816;28;8789;-76
2022/01/02 11:16:47;;;;;;;;;96.40;94.20;;;;;;;;5052730;27;8844;-77
2022/01/02 11:19:13;;;;;;;;;94.75;91.75;;;;;;;;5052261;28;11547;-80
2022/01/02 11:21:43;;;;;;;;;97.60;95.80;;;;;;;;5051428;27;9619;-77
2022/01/02 11:24:18;;;;;;;;;67.75;60.00;;;;;;;;5052343;28;8776;-75
2022/01/02 11:26:53;;;;;;;;;92.60;89.60;;;;;;;;5051123;27;8863;-74
2022/01/02 11:29:24;;;;;;;;;76.60;70.20;;;;;;;;5052432;28;9658;-76
2022/01/02 11:31:50;;;;;;;;;113.40;113.40;;;;;;;;5053029;27;8760;-76
2022/01/02 11:34:29;;;;;;;;;107.75;107.75;;;;;;;;5052037;27;9611;-76
2022/01/02 11:37:15;;;;;;;;;95.00;93.20;;;;;;;;5053642;27;8756;-75
2022/01/02 11:39:59;;;;;;;;;79.00;73.00;;;;;;;;5062370;27;8757;-76
2022/01/02 11:42:34;;;;;;;;;32.25;29.50;;;;;;;;5050856;28;8823;-75
2022/01/02 11:45:03;;;;;;;;;0.00;0.00;;;;;;;;5066652;27;8829;-76
2022/01/02 11:47:42;;;;;;;;;2.25;2.25;;;;;;;;5095309;27;9713;-76
2022/01/02 11:50:26;;;;;;;;;62.60;54.00;;;;;;;;5051764;28;8777;-76
2022/01/02 11:53:12;;;;;;;;;0.00;0.00;;;;;;;;5054305;27;8968;-75
2022/01/02 11:55:39;;;;;;;;;1.00;1.00;;;;;;;;5040552;27;8922;-75
2022/01/02 11:58:04;;;;;;;;;1.00;1.00;;;;;;;;5050700;27;8759;-75
2022/01/02 12:00:31;;;;;;;;;0.00;0.00;;;;;;;;5053098;27;9587;-74
2022/01/02 12:02:59;;;;;;;;;0.00;0.00;;;;;;;;5071634;27;8785;-74
2022/01/02 12:05:24;;;;;;;;;1.25;1.25;;;;;;;;5055425;27;8725;-75
2022/01/02 12:07:53;;;;;;;;;0.00;0.00;;;;;;;;5051130;28;9655;-74
2022/01/02 12:10:26;;;;;;;;;0.00;0.00;;;;;;;;5052340;27;8810;-74
2022/01/02 12:12:57;;;;;;;;;0.00;0.00;;;;;;;;5051919;28;8808;-74
2022/01/02 12:15:32;;;;;;;;;0.00;0.00;;;;;;;;5055311;28;8749;-75
2022/01/02 12:18:07;;;;;;;;;0.00;0.00;;;;;;;;5048730;27;8846;-75
2022/01/02 12:20:50;;;;;;;;;0.00;0.00;;;;;;;;5050583;28;8808;-74
2022/01/02 12:23:31;;;;;;;;;0.00;0.00;;;;;;;;5055432;27;8788;-74
2022/01/02 12:26:02;;;;;;;;;0.00;0.00;;;;;;;;5051908;28;8820;-74
2022/01/02 12:28:29;;;;;;;;;0.00;0.00;;;;;;;;5051209;28;8808;-76
2022/01/02 12:30:56;;;;;;;;;0.00;0.00;;;;;;;;5061875;28;8841;-76
2022/01/02 12:33:25;;;;;;;;;0.00;0.00;;;;;;;;5051890;27;8834;-75
2022/01/02 12:35:52;;;;;;;;;0.00;0.00;;;;;;;;5050330;28;8853;-75
2022/01/02 12:38:20;;;;;;;;;0.00;0.00;;;;;;;;5050455;27;9164;-75
2022/01/02 12:40:47;;;;;;;;;0.00;0.00;;;;;;;;5051407;28;8826;-75
2022/01/02 12:43:12;;;;;;;;;0.00;0.00;;;;;;;;5077068;27;8855;-75
2022/01/02 12:45:41;;;;;;;;;0.00;0.00;;;;;;;;5089265;27;8973;-75
2022/01/02 12:48:11;;;;;;;;;0.00;0.00;;;;;;;;5050043;27;8827;-75
2022/01/02 12:50:38;;;;;;;;;0.00;0.00;;;;;;;;5053142;27;8808;-75
2022/01/02 12:53:05;;;;;;;;;0.00;0.00;;;;;;;;5083088;27;8796;-76
2022/01/02 12:55:33;;;;;;;;;0.00;0.00;;;;;;;;5049893;28;8915;-76
2022/01/02 12:58:03;;;;;;;;;0.00;0.00;;;;;;;;5051604;27;8942;-76
2022/01/02 13:00:31;;;;;;;;;0.00;0.00;;;;;;;;5043719;28;8797;-76
2022/01/02 13:02:57;;;;;;;;;0.00;0.00;;;;;;;;5051346;28;8819;-75
2022/01/02 13:05:23;;;;;;;;;0.00;0.00;;;;;;;;5050940;27;8768;-75
2022/01/02 13:07:55;;;;;;;;;0.00;0.00;;;;;;;;5057716;27;9625;-75
2022/01/02 13:10:28;;;;;;;;;0.00;0.00;;;;;;;;5061314;28;8922;-75
2022/01/02 13:12:54;;;;;;;;;0.00;0.00;;;;;;;;5049062;28;8772;-76
2022/01/02 13:15:19;;;;;;;;;0.00;0.00;;;;;;;;5052724;27;9175;-76
2022/01/02 13:17:53;;;;;;;;;0.00;0.00;;;;;;;;5050707;27;8836;-75
2022/01/02 13:20:30;;;;;;;;;0.00;0.00;;;;;;;;5051132;28;8830;-75
2022/01/02 13:22:58;;;;;;;;;0.00;0.00;;;;;;;;5050937;27;8838;-75
2022/01/02 13:25:25;;;;;;;;;0.00;0.00;;;;;;;;5051304;28;8803;-76
2022/01/02 13:27:57;;;;;;;;;0.00;0.00;;;;;;;;5057284;27;8808;-76
2022/01/02 13:30:24;;;;;;;;;0.00;0.00;;;;;;;;5050958;28;8822;-75
2022/01/02 13:32:53;;;;;;;;;0.00;0.00;;;;;;;;5063475;27;8785;-75
2022/01/02 13:35:21;;;;;;;;;0.00;0.00;;;;;;;;5057477;28;8766;-76
2022/01/02 13:37:51;;;;;;;;;0.00;0.00;;;;;;;;5057329;27;8921;-75
2022/01/02 13:40:19;;;;;;;;;0.00;0.00;;;;;;;;5038102;28;8823;-75
2022/01/02 13:42:46;;;;;;;;;0.00;0.00;;;;;;;;5050302;27;8788;-75
2022/01/02 13:45:15;;;;;;;;;0.00;0.00;;;;;;;;5109576;27;8796;-75
2022/01/02 13:47:43;;;;;;;;;0.00;0.00;;;;;;;;5050384;27;8964;-75
2022/01/02 13:50:30;;;;;;;;;0.00;0.00;;;;;;;;5051134;28;8931;-78
2022/01/02 13:53:00;;;;;;;;;0.00;0.00;;;;;;;;5080556;28;8895;-75
2022/01/02 13:55:30;;;;;;;;;0.00;0.00;;;;;;;;5121056;27;9692;-75
2022/01/02 13:57:58;;;;;;;;;0.00;0.00;;;;;;;;5080005;27;8883;-75
2022/01/02 14:00:26;;;;;;;;;0.00;0.00;;;;;;;;5050286;27;8788;-75
2022/01/02 14:02:54;;;;;;;;;0.00;0.00;;;;;;;;5049061;28;8760;-75
2022/01/02 14:05:24;;;;;;;;;0.00;0.00;;;;;;;;5052994;27;8906;-75
2022/01/02 14:07:50;;;;;;;;;0.00;0.00;;;;;;;;5060286;28;8793;-76
2022/01/02 14:10:16;;;;;;;;;0.00;0.00;;;;;;;;5053120;27;8824;-75
2022/01/02 14:12:45;;;;;;;;;0.00;0.00;;;;;;;;5049270;28;8863;-77
2022/01/02 14:15:19;;;;;;;;;0.00;0.00;;;;;;;;5050276;27;8819;-77
2022/01/02 14:17:48;;;;;;;;;0.00;0.00;;;;;;;;5049673;28;8804;-74
2022/01/02 14:20:18;;;;;;;;;0.00;0.00;;;;;;;;5050534;28;8780;-75
2022/01/02 14:22:47;;;;;;;;;0.00;0.00;;;;;;;;5050274;27;8792;-75
2022/01/02 14:25:14;;;;;;;;;0.00;0.00;;;;;;;;5053610;28;8899;-75